Terminal Aerodrome Forecast
Issued by NWS

Home | Current Version | Previous Version | Text Only | Print | Product List | Glossary On
Versions: 1 2 3 4 5 6 7 8 9 10 11 12 13 14 15 16 17 18 19 20 21 22 23 24 25
000
FTUS41 KPBZ 041800 AAA
TAFBVI
TAF AMD
KBVI 041852Z 0419/0518 31005KT 6SM BR OVC008
     FM042300 32008KT 4SM -SN BR OVC008
     FM050300 32009KT 3SM -SN BR OVC006
     FM050900 34006KT 4SM -SN OVC015
     FM051500 34008KT P6SM BKN025=

USA.gov is the U.S. government's official web portal to all federal, state and local government web resources and services.